createdAt,value
2018-03-26T00:01:01.420Z,7.30
2018-03-26T00:03:27.877Z,7.20
2018-03-26T00:05:54.175Z,7.20
2018-03-26T00:08:20.548Z,7.20
2018-03-26T00:10:46.850Z,7.30
2018-03-26T00:13:13.222Z,7.40
2018-03-26T00:15:40.381Z,7.10
2018-03-26T00:18:07.419Z,7.40
2018-03-26T00:20:34.482Z,7.40
2018-03-26T00:23:01.554Z,7.30
2018-03-26T00:25:28.585Z,7.10
2018-03-26T00:27:54.958Z,7.10
2018-03-26T00:30:21.239Z,7.10
2018-03-26T00:32:47.568Z,7.10
2018-03-26T00:35:14.710Z,7.00
2018-03-26T00:37:41.790Z,7.00
2018-03-26T00:40:08.908Z,6.90
2018-03-26T00:42:35.246Z,6.90
2018-03-26T00:45:01.530Z,7.00
2018-03-26T00:47:28.574Z,7.10
2018-03-26T00:49:54.911Z,7.00
2018-03-26T00:52:21.212Z,7.20
2018-03-26T00:54:47.577Z,7.40
2018-03-26T00:57:13.929Z,7.50
2018-03-26T00:59:40.948Z,7.20
2018-03-26T01:02:07.251Z,7.20
2018-03-26T01:04:33.600Z,7.30
2018-03-26T01:07:00.637Z,7.20
2018-03-26T01:09:26.952Z,7.20
2018-03-26T01:11:54.103Z,7.30
2018-03-26T01:14:20.536Z,7.10
2018-03-26T01:16:46.865Z,7.20
2018-03-26T01:19:13.212Z,7.40
2018-03-26T01:21:39.519Z,7.10
2018-03-26T01:24:05.962Z,6.80
2018-03-26T01:26:32.309Z,7.00
2018-03-26T01:28:58.605Z,7.10
2018-03-26T01:31:24.934Z,6.80
2018-03-26T01:33:51.209Z,6.90
2018-03-26T01:36:18.310Z,6.70
2018-03-26T01:38:44.591Z,6.70
2018-03-26T01:41:11.629Z,7.00
2018-03-26T01:43:38.712Z,6.80
2018-03-26T01:46:05.003Z,6.80
2018-03-26T01:48:31.371Z,7.00
2018-03-26T01:50:57.718Z,6.80
2018-03-26T01:53:24.016Z,6.60
2018-03-26T01:55:50.414Z,6.60
2018-03-26T01:58:16.705Z,6.60
2018-03-26T02:00:43.029Z,6.60
2018-03-26T02:03:09.384Z,6.40
2018-03-26T02:05:35.718Z,6.40
2018-03-26T02:08:02.056Z,6.60
2018-03-26T02:10:28.410Z,6.60
2018-03-26T02:12:54.747Z,6.60
2018-03-26T02:15:21.081Z,6.70
2018-03-26T02:17:47.393Z,6.80
2018-03-26T02:20:14.499Z,6.80
2018-03-26T02:22:40.769Z,6.70
2018-03-26T02:25:07.858Z,6.60
2018-03-26T02:27:34.152Z,6.60
2018-03-26T02:30:01.241Z,6.60
2018-03-26T02:32:27.563Z,6.60
2018-03-26T02:34:53.895Z,6.40
2018-03-26T02:37:20.174Z,6.40
2018-03-26T02:39:46.554Z,6.50
2018-03-26T02:42:12.916Z,6.60
2018-03-26T02:44:39.220Z,6.70
2018-03-26T02:47:05.595Z,6.40
2018-03-26T02:49:31.898Z,6.30
2018-03-26T02:51:58.245Z,6.50
2018-03-26T02:54:37.510Z,6.50
2018-03-26T02:57:03.932Z,6.60
2018-03-26T02:59:31.029Z,6.40
2018-03-26T03:01:57.566Z,6.30
2018-03-26T03:04:23.890Z,6.50
2018-03-26T03:06:50.270Z,6.50
2018-03-26T03:09:16.704Z,6.50
2018-03-26T03:11:43.794Z,6.40
2018-03-26T03:14:10.138Z,6.40
2018-03-26T03:16:36.747Z,6.60
2018-03-26T03:19:03.101Z,6.50
2018-03-26T03:21:29.456Z,6.40
2018-03-26T03:23:55.759Z,6.50
2018-03-26T03:26:22.199Z,6.50
2018-03-26T03:28:48.651Z,6.40
2018-03-26T03:31:14.952Z,6.30
2018-03-26T03:33:41.246Z,6.20
2018-03-26T03:36:07.572Z,6.20
2018-03-26T03:38:33.838Z,6.10
2018-03-26T03:41:00.180Z,6.10
2018-03-26T03:43:26.509Z,6.30
2018-03-26T03:45:52.802Z,6.20
2018-03-26T03:48:19.287Z,6.10
2018-03-26T03:50:45.565Z,6.10
2018-03-26T03:53:11.862Z,6.10
2018-03-26T03:55:38.973Z,6.10
2018-03-26T03:58:06.097Z,6.20
2018-03-26T04:00:32.570Z,6.10
2018-03-26T04:02:59.675Z,6.30
2018-03-26T04:05:25.990Z,6.20
2018-03-26T04:07:52.318Z,6.20
2018-03-26T04:10:18.605Z,6.20
2018-03-26T04:12:44.922Z,6.10
2018-03-26T04:15:11.339Z,6.10
2018-03-26T04:17:37.713Z,5.90
2018-03-26T04:20:04.762Z,5.90
2018-03-26T04:22:31.811Z,5.90
2018-03-26T04:24:58.141Z,5.80
2018-03-26T04:27:25.163Z,6.00
2018-03-26T04:29:51.514Z,6.00
2018-03-26T04:32:18.545Z,6.20
2018-03-26T04:34:45.584Z,6.00
2018-03-26T04:37:11.920Z,5.90
2018-03-26T04:39:38.964Z,5.80
2018-03-26T04:42:05.306Z,5.80
2018-03-26T04:44:32.318Z,5.50
2018-03-26T04:46:58.626Z,5.40
2018-03-26T04:49:24.973Z,5.50
2018-03-26T04:51:51.285Z,5.60
2018-03-26T04:54:17.678Z,5.70
2018-03-26T04:56:44.795Z,5.70
2018-03-26T04:59:11.855Z,5.40
2018-03-26T05:01:38.964Z,5.40
2018-03-26T05:04:05.308Z,5.40
2018-03-26T05:06:31.638Z,5.50
2018-03-26T05:08:57.977Z,5.70
2018-03-26T05:11:24.302Z,5.70
2018-03-26T05:13:50.666Z,5.60
2018-03-26T05:16:17.714Z,5.50
2018-03-26T05:18:44.747Z,5.60
2018-03-26T05:21:11.818Z,5.70
2018-03-26T05:23:38.104Z,5.70
2018-03-26T05:26:04.480Z,5.80
2018-03-26T05:28:31.547Z,5.70
2018-03-26T05:30:57.936Z,5.70
2018-03-26T05:33:24.197Z,5.50
2018-03-26T05:35:50.537Z,5.60
2018-03-26T05:38:16.850Z,5.70
2018-03-26T05:40:43.187Z,5.60
2018-03-26T05:43:09.461Z,5.50
2018-03-26T05:45:35.822Z,5.50
2018-03-26T05:48:02.137Z,5.50
2018-03-26T05:50:29.226Z,5.40
2018-03-26T05:52:55.581Z,5.40
2018-03-26T05:55:21.863Z,5.50
2018-03-26T05:57:48.919Z,5.40
2018-03-26T06:00:15.240Z,5.40
2018-03-26T06:02:41.618Z,5.50
2018-03-26T06:05:07.953Z,5.50
2018-03-26T06:07:34.790Z,5.50
2018-03-26T06:10:01.089Z,5.60
2018-03-26T06:12:27.431Z,5.40
2018-03-26T06:14:53.736Z,5.40
2018-03-26T06:17:20.036Z,5.20
2018-03-26T06:19:47.109Z,5.10
2018-03-26T06:22:13.448Z,5.00
2018-03-26T06:24:39.819Z,5.20
2018-03-26T06:27:06.122Z,5.10
2018-03-26T06:29:32.481Z,5.10
2018-03-26T06:31:59.328Z,5.20
2018-03-26T06:34:25.631Z,5.20
2018-03-26T06:39:54.232Z,5.10
2018-03-26T06:42:20.607Z,5.10
2018-03-26T06:44:46.874Z,5.10
2018-03-26T06:47:13.284Z,5.30
2018-03-26T06:49:39.583Z,5.20
2018-03-26T06:52:06.641Z,5.30
2018-03-26T06:54:32.958Z,5.20
2018-03-26T06:56:59.290Z,5.40
2018-03-26T06:59:26.458Z,5.40
2018-03-26T07:01:52.744Z,5.30
2018-03-26T07:04:19.070Z,5.40
2018-03-26T07:06:45.418Z,5.40
2018-03-26T07:09:12.476Z,5.10
2018-03-26T07:11:39.534Z,5.10
2018-03-26T07:14:06.656Z,5.10
2018-03-26T07:16:32.934Z,5.10
2018-03-26T07:18:59.297Z,5.10
2018-03-26T07:21:25.615Z,5.10
2018-03-26T07:23:51.941Z,5.20
2018-03-26T07:26:18.233Z,5.10
2018-03-26T07:28:44.574Z,4.90
2018-03-26T07:31:10.881Z,4.80
2018-03-26T07:33:37.962Z,5.20
2018-03-26T07:36:04.266Z,5.10
2018-03-26T07:38:30.608Z,5.20
2018-03-26T07:40:56.948Z,5.20
2018-03-26T07:43:23.249Z,5.20
2018-03-26T07:45:50.348Z,5.40
2018-03-26T07:48:16.659Z,5.40
2018-03-26T07:50:42.997Z,5.60
2018-03-26T07:53:09.293Z,5.50
2018-03-26T07:55:35.641Z,5.40
2018-03-26T07:58:01.970Z,5.50
2018-03-26T08:00:28.305Z,5.40
2018-03-26T08:02:54.665Z,5.50
2018-03-26T08:05:22.460Z,5.50
2018-03-26T08:07:49.524Z,5.60
2018-03-26T08:10:15.868Z,5.60
2018-03-26T08:12:42.162Z,5.50
2018-03-26T08:15:08.578Z,5.50
2018-03-26T08:17:34.869Z,5.50
2018-03-26T08:20:01.192Z,5.40
2018-03-26T08:22:27.520Z,5.30
2018-03-26T08:24:53.858Z,5.30
2018-03-26T08:27:20.138Z,5.40
2018-03-26T08:29:47.217Z,5.50
2018-03-26T08:32:13.514Z,5.40
2018-03-26T08:34:39.846Z,5.40
2018-03-26T08:37:06.922Z,5.40
2018-03-26T08:39:33.233Z,5.30
2018-03-26T08:42:00.395Z,4.90
2018-03-26T08:44:27.159Z,4.80
2018-03-26T08:46:53.492Z,4.90
2018-03-26T08:49:19.796Z,5.00
2018-03-26T08:51:46.185Z,4.90
2018-03-26T08:54:12.690Z,4.80
2018-03-26T08:56:38.963Z,4.90
2018-03-26T08:59:06.015Z,4.80
2018-03-26T09:01:33.103Z,4.80
2018-03-26T09:03:59.406Z,4.70
2018-03-26T09:06:25.747Z,4.90
2018-03-26T09:08:52.095Z,4.60
2018-03-26T09:11:18.440Z,4.50
2018-03-26T09:13:44.715Z,4.70
2018-03-26T09:16:12.010Z,5.00
2018-03-26T09:18:38.381Z,5.00
2018-03-26T09:21:05.443Z,5.10
2018-03-26T09:23:32.644Z,4.90
2018-03-26T09:25:58.967Z,4.80
2018-03-26T09:28:25.247Z,4.60
2018-03-26T09:30:51.586Z,5.00
2018-03-26T09:33:18.160Z,4.90
2018-03-26T09:35:44.509Z,5.10
2018-03-26T09:38:10.796Z,5.30
2018-03-26T09:40:37.142Z,4.90
2018-03-26T09:43:03.487Z,4.70
2018-03-26T09:45:29.808Z,4.90
2018-03-26T09:47:56.167Z,4.70
2018-03-26T09:50:22.505Z,4.60
2018-03-26T09:52:49.600Z,4.60
2018-03-26T09:55:16.017Z,4.50
2018-03-26T09:57:42.298Z,4.80
2018-03-26T10:00:08.999Z,4.70
2018-03-26T10:02:36.124Z,5.00
2018-03-26T10:05:02.429Z,4.90
2018-03-26T10:07:29.598Z,4.90
2018-03-26T10:09:55.927Z,4.80
2018-03-26T10:12:22.222Z,5.00
2018-03-26T10:14:48.606Z,4.80
2018-03-26T10:17:14.878Z,5.00
2018-03-26T10:19:41.214Z,5.10
2018-03-26T10:22:08.313Z,4.80
2018-03-26T10:24:34.600Z,4.80
2018-03-26T10:27:01.719Z,5.10
2018-03-26T10:29:28.019Z,5.10
2018-03-26T10:31:54.354Z,4.70
2018-03-26T10:34:20.679Z,4.90
2018-03-26T10:36:47.019Z,5.20
2018-03-26T10:39:13.315Z,5.00
2018-03-26T10:41:39.658Z,4.90
2018-03-26T10:44:05.954Z,4.70
2018-03-26T10:46:32.330Z,5.00
2018-03-26T10:48:58.601Z,5.00
2018-03-26T10:51:25.637Z,5.30
2018-03-26T10:53:51.969Z,5.30
2018-03-26T10:56:18.254Z,5.10
2018-03-26T10:58:44.626Z,5.10
2018-03-26T11:01:10.925Z,4.80
2018-03-26T11:03:37.264Z,4.70
2018-03-26T11:06:03.594Z,4.50
2018-03-26T11:08:29.932Z,4.60
2018-03-26T11:10:56.232Z,4.70
2018-03-26T11:13:22.533Z,4.80
2018-03-26T11:15:49.615Z,4.50
2018-03-26T11:18:15.933Z,4.50
2018-03-26T11:20:42.302Z,4.50
2018-03-26T11:23:08.654Z,4.70
2018-03-26T11:25:35.708Z,4.70
2018-03-26T11:28:02.865Z,4.70
2018-03-26T11:30:29.159Z,4.70
2018-03-26T11:32:55.456Z,4.50
2018-03-26T11:35:21.836Z,4.40
2018-03-26T11:37:48.124Z,4.60
2018-03-26T11:40:14.469Z,4.70
2018-03-26T11:42:40.749Z,4.40
2018-03-26T11:45:07.082Z,4.30
2018-03-26T11:47:33.386Z,4.40
2018-03-26T11:50:00.473Z,4.60
2018-03-26T11:52:26.758Z,4.60
2018-03-26T11:54:53.840Z,5.10
2018-03-26T11:57:20.135Z,5.00
2018-03-26T11:59:47.207Z,4.50
2018-03-26T12:02:13.562Z,4.40
2018-03-26T12:04:39.924Z,4.70
2018-03-26T12:07:06.206Z,4.90
2018-03-26T12:09:32.537Z,4.80
2018-03-26T12:11:58.881Z,4.80
2018-03-26T12:14:25.192Z,4.40
2018-03-26T12:16:51.517Z,4.50
2018-03-26T12:19:17.885Z,4.40
2018-03-26T12:21:44.231Z,4.40
2018-03-26T12:24:22.876Z,4.40
2018-03-26T12:26:49.135Z,4.30
2018-03-26T12:29:27.932Z,4.10
2018-03-26T12:31:54.181Z,4.20
2018-03-26T12:34:32.776Z,4.40
2018-03-26T12:36:59.040Z,4.10
2018-03-26T12:39:25.339Z,4.00
2018-03-26T12:41:51.682Z,4.10
2018-03-26T12:44:30.442Z,4.20
2018-03-26T12:46:56.716Z,4.30
2018-03-26T12:49:23.017Z,4.40
2018-03-26T12:52:02.601Z,4.40
2018-03-26T12:54:29.586Z,4.40
2018-03-26T12:57:08.273Z,4.30
2018-03-26T12:59:35.337Z,4.60
2018-03-26T13:02:14.021Z,4.50
2018-03-26T13:04:41.052Z,4.20
2018-03-26T13:07:08.118Z,4.30
2018-03-26T13:09:34.415Z,4.30
2018-03-26T13:12:01.506Z,4.10
2018-03-26T13:14:27.847Z,4.00
2018-03-26T13:16:54.130Z,4.10
2018-03-26T13:19:20.484Z,4.10
2018-03-26T13:21:46.771Z,4.00
2018-03-26T13:24:13.840Z,3.90
2018-03-26T13:26:40.122Z,3.80
2018-03-26T13:29:06.497Z,3.90
2018-03-26T13:31:32.782Z,3.90
2018-03-26T13:33:59.094Z,3.80
2018-03-26T13:36:25.423Z,3.80
2018-03-26T13:38:51.714Z,3.90
2018-03-26T13:41:18.080Z,3.90
2018-03-26T13:43:44.386Z,3.90
2018-03-26T13:46:10.752Z,3.90
2018-03-26T13:48:37.034Z,3.80
2018-03-26T13:51:03.367Z,3.70
2018-03-26T13:53:29.746Z,3.80
2018-03-26T13:55:56.030Z,3.70
2018-03-26T13:58:22.357Z,3.80
2018-03-26T14:00:48.721Z,3.90
2018-03-26T14:03:15.019Z,3.90
2018-03-26T14:05:41.350Z,3.70
2018-03-26T14:08:19.803Z,3.60
2018-03-26T14:10:58.599Z,3.70
2018-03-26T14:13:37.915Z,3.70
2018-03-26T14:16:16.569Z,3.60
2018-03-26T14:18:42.881Z,3.40
2018-03-26T14:21:09.241Z,3.70
2018-03-26T14:23:35.842Z,3.80
2018-03-26T14:26:02.486Z,3.80
2018-03-26T14:28:31.419Z,4.00
2018-03-26T14:30:59.361Z,4.00
2018-03-26T14:33:27.349Z,4.20
2018-03-26T14:35:55.506Z,4.30
2018-03-26T14:38:23.679Z,4.30
2018-03-26T14:40:50.217Z,4.70
2018-03-26T14:43:16.813Z,4.60
2018-03-26T14:45:44.302Z,4.80
2018-03-26T14:48:12.067Z,5.00
2018-03-26T14:50:39.718Z,5.20
2018-03-26T14:53:07.378Z,5.30
2018-03-26T14:55:35.245Z,5.40
2018-03-26T14:58:03.726Z,5.80
2018-03-26T15:00:31.282Z,5.70
2018-03-26T15:02:58.773Z,6.10
2018-03-26T15:05:26.646Z,6.40
2018-03-26T15:07:54.673Z,6.60
2018-03-26T15:10:22.948Z,6.90
2018-03-26T15:12:50.816Z,6.80
2018-03-26T15:15:18.577Z,7.70
2018-03-26T15:17:46.139Z,9.20
2018-03-26T15:20:13.796Z,9.70
2018-03-26T15:22:45.040Z,10.00
2018-03-26T15:25:12.804Z,9.50
2018-03-26T15:27:40.364Z,8.80
2018-03-26T15:30:07.957Z,7.80
2018-03-26T15:32:35.787Z,7.00
2018-03-26T15:35:04.163Z,6.20
2018-03-26T15:37:31.720Z,6.20
2018-03-26T15:39:59.585Z,6.20
2018-03-26T15:42:27.146Z,6.10
2018-03-26T15:44:55.112Z,6.00
2018-03-26T15:47:22.978Z,6.30
2018-03-26T15:49:49.466Z,6.30
2018-03-26T15:52:16.549Z,6.40
2018-03-26T15:54:42.863Z,6.30
2018-03-26T15:57:09.234Z,6.50
2018-03-26T15:59:35.604Z,6.30
2018-03-26T16:02:01.894Z,6.40
2018-03-26T16:04:29.705Z,6.30
2018-03-26T16:06:56.033Z,6.30
2018-03-26T16:09:22.404Z,6.40
2018-03-26T16:11:48.710Z,6.20
2018-03-26T16:14:15.007Z,6.10
2018-03-26T16:16:42.102Z,6.20
2018-03-26T16:19:08.410Z,6.20
2018-03-26T16:21:34.786Z,6.30
2018-03-26T16:24:01.092Z,6.10
2018-03-26T16:26:30.191Z,6.20
2018-03-26T16:28:56.525Z,6.30
2018-03-26T16:31:22.824Z,6.30
2018-03-26T16:33:49.199Z,6.30
2018-03-26T16:36:16.298Z,6.20
2018-03-26T16:38:42.642Z,6.20
2018-03-26T16:41:08.956Z,6.20
2018-03-26T16:43:35.971Z,6.00
2018-03-26T16:46:03.136Z,5.90
2018-03-26T16:48:29.448Z,5.90
2018-03-26T16:50:56.514Z,6.10
2018-03-26T16:53:22.912Z,6.10
2018-03-26T16:55:49.192Z,6.20
2018-03-26T16:58:15.518Z,6.10
2018-03-26T17:00:41.840Z,6.10
2018-03-26T17:03:08.134Z,6.00
2018-03-26T17:05:35.211Z,5.60
2018-03-26T17:08:01.545Z,5.60
2018-03-26T17:10:27.895Z,5.70
2018-03-26T17:12:54.257Z,5.70
2018-03-26T17:15:22.041Z,5.60
2018-03-26T17:17:48.419Z,5.60
2018-03-26T17:20:14.755Z,5.50
2018-03-26T17:22:41.119Z,5.50
2018-03-26T17:25:07.507Z,5.60
2018-03-26T17:27:33.847Z,5.50
2018-03-26T17:30:00.199Z,5.40
2018-03-26T17:32:26.558Z,5.40
2018-03-26T17:34:53.599Z,5.20
2018-03-26T17:37:20.699Z,5.40
2018-03-26T17:39:47.764Z,5.40
2018-03-26T17:42:14.118Z,5.30
2018-03-26T17:44:41.178Z,5.40
2018-03-26T17:47:07.546Z,5.40
2018-03-26T17:49:33.914Z,5.30
2018-03-26T17:52:00.299Z,5.40
2018-03-26T17:54:26.582Z,5.40
2018-03-26T17:56:53.614Z,5.40
2018-03-26T17:59:19.962Z,5.30
2018-03-26T18:01:46.986Z,5.40
2018-03-26T18:04:13.337Z,5.40
2018-03-26T18:06:40.368Z,5.50
2018-03-26T18:09:06.667Z,5.50
2018-03-26T18:11:33.011Z,5.40
2018-03-26T18:13:59.322Z,5.50
2018-03-26T18:16:25.652Z,5.40
2018-03-26T18:18:51.957Z,5.40
2018-03-26T18:21:18.309Z,5.40
2018-03-26T18:23:44.592Z,5.40
2018-03-26T18:26:10.948Z,5.40
2018-03-26T18:28:37.226Z,5.40
2018-03-26T18:31:03.590Z,5.40
2018-03-26T18:33:29.890Z,5.30
2018-03-26T18:35:56.207Z,5.40
2018-03-26T18:38:22.552Z,5.20
2018-03-26T18:40:49.652Z,5.20
2018-03-26T18:43:16.007Z,5.10
2018-03-26T18:45:42.314Z,5.30
2018-03-26T18:48:08.791Z,5.30
2018-03-26T18:50:35.891Z,5.20
2018-03-26T18:53:02.194Z,5.10
2018-03-26T18:55:28.510Z,5.10
2018-03-26T18:57:55.625Z,5.30
2018-03-26T19:00:23.155Z,5.20
2018-03-26T19:02:51.109Z,5.20
2018-03-26T19:05:17.439Z,5.20
2018-03-26T19:07:43.736Z,5.20
2018-03-26T19:10:11.123Z,5.10
2018-03-26T19:12:37.426Z,5.10
2018-03-26T19:15:03.785Z,5.00
2018-03-26T19:17:30.082Z,5.10
2018-03-26T19:19:57.214Z,5.00
2018-03-26T19:22:23.922Z,5.00
2018-03-26T19:24:51.258Z,4.90
2018-03-26T19:27:17.793Z,4.80
2018-03-26T19:29:44.107Z,4.80
2018-03-26T19:32:10.673Z,4.80
2018-03-26T19:34:37.043Z,4.80
2018-03-26T19:37:04.306Z,5.00
2018-03-26T19:39:31.386Z,5.10
2018-03-26T19:41:58.630Z,5.00
2018-03-26T19:44:25.031Z,4.90
2018-03-26T19:46:52.277Z,4.90
2018-03-26T19:49:19.379Z,4.90
2018-03-26T19:51:45.882Z,4.80
2018-03-26T19:54:12.207Z,4.90
2018-03-26T19:56:38.509Z,4.90
2018-03-26T19:59:05.315Z,4.90
2018-03-26T20:01:31.598Z,5.00
2018-03-26T20:03:58.244Z,5.00
2018-03-26T20:06:24.536Z,5.00
2018-03-26T20:08:50.951Z,5.10
2018-03-26T20:11:17.542Z,5.00
2018-03-26T20:13:43.828Z,5.00
2018-03-26T20:16:10.159Z,5.00
2018-03-26T20:18:36.441Z,4.90
2018-03-26T20:21:02.811Z,4.80
2018-03-26T20:23:29.174Z,4.70
2018-03-26T20:25:56.256Z,4.60
2018-03-26T20:28:22.645Z,4.60
2018-03-26T20:30:49.710Z,4.60
2018-03-26T20:33:16.085Z,4.60
2018-03-26T20:35:42.423Z,4.60
2018-03-26T20:38:08.822Z,4.60
2018-03-26T20:40:35.883Z,4.60
2018-03-26T20:43:02.280Z,4.50
2018-03-26T20:45:29.338Z,4.60
2018-03-26T20:47:55.974Z,4.60
2018-03-26T20:50:22.335Z,4.70
2018-03-26T20:52:48.695Z,4.50
2018-03-26T20:55:15.731Z,4.50
2018-03-26T20:57:42.814Z,4.40
2018-03-26T21:00:09.323Z,4.40
2018-03-26T21:02:35.699Z,4.50
2018-03-26T21:05:02.023Z,4.40
2018-03-26T21:07:28.393Z,4.40
2018-03-26T21:09:54.685Z,4.40
2018-03-26T21:12:21.018Z,4.30
2018-03-26T21:14:47.353Z,4.40
2018-03-26T21:17:13.673Z,4.40
2018-03-26T21:19:40.017Z,4.30
2018-03-26T21:22:06.326Z,4.20
2018-03-26T21:24:32.699Z,4.20
2018-03-26T21:26:58.997Z,4.20
2018-03-26T21:29:25.344Z,4.10
2018-03-26T21:31:51.668Z,4.00
2018-03-26T21:34:18.046Z,4.10
2018-03-26T21:36:44.354Z,4.00
2018-03-26T21:39:10.782Z,3.90
2018-03-26T21:41:38.586Z,3.90
2018-03-26T21:44:04.932Z,3.90
2018-03-26T21:46:31.281Z,3.90
2018-03-26T21:48:57.613Z,3.90
2018-03-26T21:51:23.973Z,3.90
2018-03-26T21:53:50.259Z,3.90
2018-03-26T21:56:16.607Z,3.90
2018-03-26T21:58:42.917Z,3.80
2018-03-26T22:01:10.047Z,3.90
2018-03-26T22:03:36.347Z,3.90
2018-03-26T22:06:03.425Z,3.90
2018-03-26T22:08:29.721Z,3.80
2018-03-26T22:10:56.780Z,3.80
2018-03-26T22:13:23.256Z,3.70
2018-03-26T22:15:49.558Z,3.90
2018-03-26T22:18:15.856Z,3.80
2018-03-26T22:20:42.951Z,3.80
2018-03-26T22:23:09.297Z,3.80
2018-03-26T22:25:35.621Z,3.80
2018-03-26T22:28:01.952Z,3.80
2018-03-26T22:30:28.582Z,3.70
2018-03-26T22:32:54.871Z,3.80
2018-03-26T22:35:21.196Z,3.90
2018-03-26T22:37:47.511Z,3.90
2018-03-26T22:40:13.860Z,3.70
2018-03-26T22:42:40.189Z,3.70
2018-03-26T22:45:06.489Z,3.80
2018-03-26T22:47:32.834Z,3.80
2018-03-26T22:49:59.878Z,3.80
2018-03-26T22:52:26.970Z,3.80
2018-03-26T22:54:53.249Z,3.70
2018-03-26T22:57:19.963Z,3.80
2018-03-26T22:59:46.244Z,3.70
2018-03-26T23:02:12.545Z,3.80
2018-03-26T23:04:39.686Z,3.80
2018-03-26T23:07:06.516Z,3.80
2018-03-26T23:09:33.525Z,3.80
2018-03-26T23:12:00.421Z,3.80
2018-03-26T23:14:27.767Z,3.70
2018-03-26T23:16:54.721Z,3.70
2018-03-26T23:19:21.136Z,3.60
2018-03-26T23:21:47.500Z,3.60
2018-03-26T23:24:13.846Z,3.60
2018-03-26T23:26:40.291Z,3.60
2018-03-26T23:29:06.671Z,3.70
2018-03-26T23:31:33.812Z,3.70
2018-03-26T23:34:00.286Z,3.60
2018-03-26T23:36:26.705Z,3.70
2018-03-26T23:38:53.115Z,3.70
2018-03-26T23:41:20.176Z,3.70
2018-03-26T23:43:47.257Z,3.70
2018-03-26T23:46:13.588Z,3.70
2018-03-26T23:48:39.949Z,3.60
2018-03-26T23:51:06.272Z,3.50
2018-03-26T23:53:32.580Z,3.60
2018-03-26T23:55:58.922Z,3.60
2018-03-26T23:58:25.234Z,3.70
